sensor_id;sensor_type;location;lat;lon;timestamp;pressure;altitude;pressure_sealevel;temperature;humidity
70833;BME280;58452;59.418;17.962;2023-04-30T00:01:19;100461.75;;;3.33;84.08
70833;BME280;58452;59.418;17.962;2023-04-30T00:03:44;100471.34;;;3.29;82.83
70833;BME280;58452;59.418;17.962;2023-04-30T00:06:10;100472.34;;;3.27;82.67
70833;BME280;58452;59.418;17.962;2023-04-30T00:08:35;100468.19;;;3.26;83.84
70833;BME280;58452;59.418;17.962;2023-04-30T00:11:00;100475.84;;;3.26;83.71
70833;BME280;58452;59.418;17.962;2023-04-30T00:13:26;100479.72;;;3.19;82.77
70833;BME280;58452;59.418;17.962;2023-04-30T00:15:51;100474.00;;;3.15;83.52
70833;BME280;58452;59.418;17.962;2023-04-30T00:18:17;100494.81;;;3.22;84.04
70833;BME280;58452;59.418;17.962;2023-04-30T00:20:42;100488.06;;;3.21;84.06
70833;BME280;58452;59.418;17.962;2023-04-30T00:23:07;100484.09;;;3.17;84.35
70833;BME280;58452;59.418;17.962;2023-04-30T00:25:34;100491.94;;;3.14;83.73
70833;BME280;58452;59.418;17.962;2023-04-30T00:27:59;100508.97;;;3.13;83.84
70833;BME280;58452;59.418;17.962;2023-04-30T00:30:25;100498.16;;;3.10;83.35
70833;BME280;58452;59.418;17.962;2023-04-30T00:32:50;100497.03;;;3.14;84.46
70833;BME280;58452;59.418;17.962;2023-04-30T00:35:16;100507.44;;;3.11;84.18
70833;BME280;58452;59.418;17.962;2023-04-30T00:37:41;100500.69;;;3.10;84.15
70833;BME280;58452;59.418;17.962;2023-04-30T00:40:07;100513.66;;;3.07;84.62
70833;BME280;58452;59.418;17.962;2023-04-30T00:42:32;100512.84;;;3.06;84.60
70833;BME280;58452;59.418;17.962;2023-04-30T00:44:58;100518.22;;;3.02;84.51
70833;BME280;58452;59.418;17.962;2023-04-30T00:47:23;100520.56;;;3.05;84.35
70833;BME280;58452;59.418;17.962;2023-04-30T00:49:49;100526.81;;;3.01;84.86
70833;BME280;58452;59.418;17.962;2023-04-30T00:52:15;100526.97;;;2.97;84.36
70833;BME280;58452;59.418;17.962;2023-04-30T00:54:41;100520.44;;;2.93;84.37
70833;BME280;58452;59.418;17.962;2023-04-30T00:57:08;100537.50;;;2.93;84.29
70833;BME280;58452;59.418;17.962;2023-04-30T00:59:37;100536.38;;;2.97;84.41
70833;BME280;58452;59.418;17.962;2023-04-30T01:02:02;100532.69;;;3.01;84.13
70833;BME280;58452;59.418;17.962;2023-04-30T01:04:28;100546.19;;;3.03;84.69
70833;BME280;58452;59.418;17.962;2023-04-30T01:06:54;100541.56;;;2.95;84.26
70833;BME280;58452;59.418;17.962;2023-04-30T01:09:20;100547.47;;;2.96;84.19
70833;BME280;58452;59.418;17.962;2023-04-30T01:14:26;100561.41;;;2.90;82.96
70833;BME280;58452;59.418;17.962;2023-04-30T01:17:05;100556.94;;;2.94;82.84
70833;BME280;58452;59.418;17.962;2023-04-30T01:19:43;100544.50;;;2.89;82.56
70833;BME280;58452;59.418;17.962;2023-04-30T01:22:30;100556.44;;;2.89;83.57
70833;BME280;58452;59.418;17.962;2023-04-30T01:30:30;100563.25;;;2.88;83.69
70833;BME280;58452;59.418;17.962;2023-04-30T01:32:56;100564.44;;;2.83;83.29
70833;BME280;58452;59.418;17.962;2023-04-30T01:38:23;100576.28;;;2.84;83.63
70833;BME280;58452;59.418;17.962;2023-04-30T01:40:57;100579.13;;;2.79;83.49
70833;BME280;58452;59.418;17.962;2023-04-30T01:43:46;100570.97;;;2.74;82.99
70833;BME280;58452;59.418;17.962;2023-04-30T01:46:24;100577.66;;;2.75;83.29
70833;BME280;58452;59.418;17.962;2023-04-30T01:48:58;100580.22;;;2.75;83.39
70833;BME280;58452;59.418;17.962;2023-04-30T01:51:38;100581.34;;;2.71;83.60
70833;BME280;58452;59.418;17.962;2023-04-30T01:54:29;100588.06;;;2.72;83.05
70833;BME280;58452;59.418;17.962;2023-04-30T01:57:19;100579.78;;;2.69;82.87
70833;BME280;58452;59.418;17.962;2023-04-30T01:59:46;100576.41;;;2.68;82.82
70833;BME280;58452;59.418;17.962;2023-04-30T02:02:11;100580.41;;;2.72;82.43
70833;BME280;58452;59.418;17.962;2023-04-30T02:04:37;100579.69;;;2.70;82.40
70833;BME280;58452;59.418;17.962;2023-04-30T02:07:02;100575.44;;;2.71;82.56
70833;BME280;58452;59.418;17.962;2023-04-30T02:09:28;100580.41;;;2.72;82.27
70833;BME280;58452;59.418;17.962;2023-04-30T02:11:53;100585.91;;;2.66;82.10
70833;BME280;58452;59.418;17.962;2023-04-30T02:14:19;100582.53;;;2.66;81.84
70833;BME280;58452;59.418;17.962;2023-04-30T02:16:44;100594.72;;;2.61;81.90
70833;BME280;58452;59.418;17.962;2023-04-30T02:19:09;100597.19;;;2.62;82.58
70833;BME280;58452;59.418;17.962;2023-04-30T02:21:35;100598.09;;;2.61;81.68
70833;BME280;58452;59.418;17.962;2023-04-30T02:24:01;100586.28;;;2.60;81.54
70833;BME280;58452;59.418;17.962;2023-04-30T02:26:26;100597.38;;;2.59;81.81
70833;BME280;58452;59.418;17.962;2023-04-30T02:28:51;100587.38;;;2.56;81.96
70833;BME280;58452;59.418;17.962;2023-04-30T02:31:17;100590.66;;;2.58;81.25
70833;BME280;58452;59.418;17.962;2023-04-30T02:33:42;100601.66;;;2.59;81.34
70833;BME280;58452;59.418;17.962;2023-04-30T02:36:08;100600.94;;;2.57;81.13
70833;BME280;58452;59.418;17.962;2023-04-30T02:38:33;100598.47;;;2.55;80.80
70833;BME280;58452;59.418;17.962;2023-04-30T02:40:59;100600.59;;;2.49;81.71
70833;BME280;58452;59.418;17.962;2023-04-30T02:43:24;100608.50;;;2.44;81.22
70833;BME280;58452;59.418;17.962;2023-04-30T02:45:50;100611.25;;;2.41;81.00
70833;BME280;58452;59.418;17.962;2023-04-30T02:48:15;100617.03;;;2.43;80.45
70833;BME280;58452;59.418;17.962;2023-04-30T02:50:41;100615.59;;;2.39;80.69
70833;BME280;58452;59.418;17.962;2023-04-30T02:53:07;100615.78;;;2.36;80.78
70833;BME280;58452;59.418;17.962;2023-04-30T02:55:32;100613.63;;;2.30;80.48
70833;BME280;58452;59.418;17.962;2023-04-30T02:57:58;100634.25;;;2.25;80.20
70833;BME280;58452;59.418;17.962;2023-04-30T03:00:23;100625.78;;;2.25;80.41
70833;BME280;58452;59.418;17.962;2023-04-30T03:02:48;100632.78;;;2.21;79.69
70833;BME280;58452;59.418;17.962;2023-04-30T03:05:14;100627.25;;;2.15;79.86
70833;BME280;58452;59.418;17.962;2023-04-30T03:07:40;100627.81;;;2.20;80.05
70833;BME280;58452;59.418;17.962;2023-04-30T03:10:06;100631.78;;;2.10;79.53
70833;BME280;58452;59.418;17.962;2023-04-30T03:12:32;100631.78;;;2.10;80.06
70833;BME280;58452;59.418;17.962;2023-04-30T03:14:57;100629.78;;;2.01;80.67
70833;BME280;58452;59.418;17.962;2023-04-30T03:17:23;100626.69;;;1.95;79.90
70833;BME280;58452;59.418;17.962;2023-04-30T03:19:49;100639.84;;;1.88;79.89
70833;BME280;58452;59.418;17.962;2023-04-30T03:22:15;100639.41;;;1.81;80.43
70833;BME280;58452;59.418;17.962;2023-04-30T03:24:40;100644.66;;;1.78;80.33
70833;BME280;58452;59.418;17.962;2023-04-30T03:27:06;100641.03;;;1.82;80.24
70833;BME280;58452;59.418;17.962;2023-04-30T03:29:31;100643.47;;;1.84;80.14
70833;BME280;58452;59.418;17.962;2023-04-30T03:31:56;100650.84;;;1.74;79.39
70833;BME280;58452;59.418;17.962;2023-04-30T03:34:22;100658.81;;;1.68;80.00
70833;BME280;58452;59.418;17.962;2023-04-30T03:36:47;100646.81;;;1.70;79.43
70833;BME280;58452;59.418;17.962;2023-04-30T03:39:14;100650.19;;;1.71;79.99
70833;BME280;58452;59.418;17.962;2023-04-30T03:41:40;100657.09;;;1.69;79.23
70833;BME280;58452;59.418;17.962;2023-04-30T03:44:05;100658.25;;;1.63;79.09
70833;BME280;58452;59.418;17.962;2023-04-30T03:46:31;100669.16;;;1.65;78.58
70833;BME280;58452;59.418;17.962;2023-04-30T03:48:56;100667.19;;;1.70;78.38
70833;BME280;58452;59.418;17.962;2023-04-30T03:51:22;100670.97;;;1.63;78.47
70833;BME280;58452;59.418;17.962;2023-04-30T03:53:47;100671.03;;;1.62;78.34
70833;BME280;58452;59.418;17.962;2023-04-30T03:56:13;100669.00;;;1.68;78.00
70833;BME280;58452;59.418;17.962;2023-04-30T03:58:38;100666.47;;;1.68;78.38
70833;BME280;58452;59.418;17.962;2023-04-30T04:01:04;100673.09;;;1.71;77.63
70833;BME280;58452;59.418;17.962;2023-04-30T04:03:30;100682.25;;;1.73;77.91
70833;BME280;58452;59.418;17.962;2023-04-30T04:05:55;100678.81;;;1.74;77.67
70833;BME280;58452;59.418;17.962;2023-04-30T04:08:21;100675.38;;;1.75;77.57
70833;BME280;58452;59.418;17.962;2023-04-30T04:10:46;100682.81;;;1.78;77.39
70833;BME280;58452;59.418;17.962;2023-04-30T04:13:11;100684.56;;;1.78;76.94
70833;BME280;58452;59.418;17.962;2023-04-30T04:15:37;100689.00;;;1.74;77.07
70833;BME280;58452;59.418;17.962;2023-04-30T04:18:02;100685.19;;;1.81;77.14
70833;BME280;58452;59.418;17.962;2023-04-30T04:20:28;100699.81;;;1.78;76.50
70833;BME280;58452;59.418;17.962;2023-04-30T04:22:54;100698.28;;;1.75;76.55
70833;BME280;58452;59.418;17.962;2023-04-30T04:25:20;100700.63;;;1.78;75.73
70833;BME280;58452;59.418;17.962;2023-04-30T04:27:49;100708.28;;;1.78;75.87
70833;BME280;58452;59.418;17.962;2023-04-30T04:30:14;100704.53;;;1.84;76.43
70833;BME280;58452;59.418;17.962;2023-04-30T04:32:40;100705.47;;;1.83;76.00
70833;BME280;58452;59.418;17.962;2023-04-30T04:35:14;100704.22;;;1.90;76.88
70833;BME280;58452;59.418;17.962;2023-04-30T04:37:39;100720.13;;;1.93;75.57
70833;BME280;58452;59.418;17.962;2023-04-30T04:40:06;100708.13;;;1.95;75.49
70833;BME280;58452;59.418;17.962;2023-04-30T04:42:32;100714.00;;;2.12;76.71
70833;BME280;58452;59.418;17.962;2023-04-30T04:44:57;100718.72;;;2.18;74.91
70833;BME280;58452;59.418;17.962;2023-04-30T04:47:22;100716.34;;;2.15;75.03
70833;BME280;58452;59.418;17.962;2023-04-30T04:49:48;100728.56;;;2.24;75.40
70833;BME280;58452;59.418;17.962;2023-04-30T04:52:14;100726.72;;;2.12;75.25
70833;BME280;58452;59.418;17.962;2023-04-30T04:54:39;100726.53;;;2.15;74.97
70833;BME280;58452;59.418;17.962;2023-04-30T04:57:05;100725.44;;;2.19;75.49
70833;BME280;58452;59.418;17.962;2023-04-30T04:59:30;100727.09;;;2.20;75.36
70833;BME280;58452;59.418;17.962;2023-04-30T05:01:56;100738.25;;;2.17;74.55
70833;BME280;58452;59.418;17.962;2023-04-30T05:04:21;100729.25;;;2.12;74.87
70833;BME280;58452;59.418;17.962;2023-04-30T05:06:47;100725.88;;;2.11;74.98
70833;BME280;58452;59.418;17.962;2023-04-30T05:09:12;100739.34;;;2.13;74.99
70833;BME280;58452;59.418;17.962;2023-04-30T05:11:38;100727.53;;;2.12;75.19
70833;BME280;58452;59.418;17.962;2023-04-30T05:14:05;100743.88;;;2.08;74.83
70833;BME280;58452;59.418;17.962;2023-04-30T05:16:31;100757.59;;;2.06;75.54
70833;BME280;58452;59.418;17.962;2023-04-30T05:18:56;100751.78;;;2.04;74.79
70833;BME280;58452;59.418;17.962;2023-04-30T05:21:22;100749.94;;;2.06;74.85
70833;BME280;58452;59.418;17.962;2023-04-30T05:23:47;100756.16;;;2.02;75.70
70833;BME280;58452;59.418;17.962;2023-04-30T05:26:13;100763.78;;;2.02;75.00
70833;BME280;58452;59.418;17.962;2023-04-30T05:28:38;100768.88;;;2.02;75.60
70833;BME280;58452;59.418;17.962;2023-04-30T05:31:04;100768.53;;;2.08;76.08
70833;BME280;58452;59.418;17.962;2023-04-30T05:33:29;100767.44;;;2.12;75.49
70833;BME280;58452;59.418;17.962;2023-04-30T05:35:55;100776.72;;;2.13;75.00
70833;BME280;58452;59.418;17.962;2023-04-30T05:38:20;100782.72;;;2.12;75.08
70833;BME280;58452;59.418;17.962;2023-04-30T05:40:45;100779.09;;;2.16;75.72
70833;BME280;58452;59.418;17.962;2023-04-30T05:43:11;100791.47;;;2.22;76.16
70833;BME280;58452;59.418;17.962;2023-04-30T05:45:36;100791.09;;;2.28;75.96
70833;BME280;58452;59.418;17.962;2023-04-30T05:48:02;100794.41;;;2.30;75.95
70833;BME280;58452;59.418;17.962;2023-04-30T05:50:28;100785.69;;;2.34;76.06
70833;BME280;58452;59.418;17.962;2023-04-30T05:52:53;100796.59;;;2.36;75.60
70833;BME280;58452;59.418;17.962;2023-04-30T05:55:19;100803.50;;;2.34;75.22
70833;BME280;58452;59.418;17.962;2023-04-30T05:57:44;100803.41;;;2.35;75.17
70833;BME280;58452;59.418;17.962;2023-04-30T06:00:10;100802.31;;;2.39;74.84
70833;BME280;58452;59.418;17.962;2023-04-30T06:02:36;100807.72;;;2.49;75.46
70833;BME280;58452;59.418;17.962;2023-04-30T06:05:02;100802.97;;;2.57;75.43
70833;BME280;58452;59.418;17.962;2023-04-30T06:07:27;100799.53;;;2.58;74.21
70833;BME280;58452;59.418;17.962;2023-04-30T06:09:53;100807.00;;;2.61;74.64
70833;BME280;58452;59.418;17.962;2023-04-30T06:12:18;100805.19;;;2.49;74.51
70833;BME280;58452;59.418;17.962;2023-04-30T06:14:44;100813.28;;;2.70;75.36
70833;BME280;58452;59.418;17.962;2023-04-30T06:17:13;100806.09;;;2.62;74.14
70833;BME280;58452;59.418;17.962;2023-04-30T06:19:40;100813.56;;;2.79;74.45
70833;BME280;58452;59.418;17.962;2023-04-30T06:22:05;100825.78;;;2.74;74.39
70833;BME280;58452;59.418;17.962;2023-04-30T06:24:30;100814.56;;;2.77;74.65
70833;BME280;58452;59.418;17.962;2023-04-30T06:26:56;100811.75;;;2.81;74.25
70833;BME280;58452;59.418;17.962;2023-04-30T06:29:21;100815.03;;;2.83;73.81
70833;BME280;58452;59.418;17.962;2023-04-30T06:31:49;100822.22;;;2.91;74.51
70833;BME280;58452;59.418;17.962;2023-04-30T06:34:15;100827.97;;;2.94;74.60
70833;BME280;58452;59.418;17.962;2023-04-30T06:36:40;100827.78;;;2.97;73.83
70833;BME280;58452;59.418;17.962;2023-04-30T06:39:06;100830.88;;;3.03;73.16
70833;BME280;58452;59.418;17.962;2023-04-30T06:41:31;100834.13;;;3.05;73.06
70833;BME280;58452;59.418;17.962;2023-04-30T06:43:57;100839.16;;;3.20;73.27
70833;BME280;58452;59.418;17.962;2023-04-30T06:46:22;100846.81;;;3.06;72.52
70833;BME280;58452;59.418;17.962;2023-04-30T06:48:47;100844.72;;;3.13;72.98
70833;BME280;58452;59.418;17.962;2023-04-30T06:51:13;100847.06;;;3.16;72.28
70833;BME280;58452;59.418;17.962;2023-04-30T06:53:38;100844.34;;;3.33;73.60
70833;BME280;58452;59.418;17.962;2023-04-30T06:56:04;100835.53;;;3.65;73.46
70833;BME280;58452;59.418;17.962;2023-04-30T06:58:29;100841.16;;;3.84;71.75
70833;BME280;58452;59.418;17.962;2023-04-30T07:00:55;100854.00;;;3.83;72.24
70833;BME280;58452;59.418;17.962;2023-04-30T07:03:20;100856.75;;;3.80;70.80
70833;BME280;58452;59.418;17.962;2023-04-30T07:05:46;100858.66;;;3.76;71.71
70833;BME280;58452;59.418;17.962;2023-04-30T07:08:12;100857.22;;;3.72;71.68
70833;BME280;58452;59.418;17.962;2023-04-30T07:10:37;100852.81;;;3.74;71.82
70833;BME280;58452;59.418;17.962;2023-04-30T07:13:02;100866.25;;;3.78;71.73
70833;BME280;58452;59.418;17.962;2023-04-30T07:15:28;100869.06;;;3.73;71.95
70833;BME280;58452;59.418;17.962;2023-04-30T07:17:53;100860.88;;;3.68;70.96
70833;BME280;58452;59.418;17.962;2023-04-30T07:20:19;100867.03;;;3.78;71.82
70833;BME280;58452;59.418;17.962;2023-04-30T07:22:44;100871.78;;;3.84;71.20
70833;BME280;58452;59.418;17.962;2023-04-30T07:25:11;100866.91;;;3.94;72.49
70833;BME280;58452;59.418;17.962;2023-04-30T07:27:37;100869.19;;;3.99;70.78
70833;BME280;58452;59.418;17.962;2023-04-30T07:30:03;100868.97;;;4.02;70.86
70833;BME280;58452;59.418;17.962;2023-04-30T07:32:29;100878.44;;;4.14;70.97
70833;BME280;58452;59.418;17.962;2023-04-30T07:34:54;100881.50;;;4.19;70.33
70833;BME280;58452;59.418;17.962;2023-04-30T07:37:20;100886.59;;;4.19;70.73
70833;BME280;58452;59.418;17.962;2023-04-30T07:39:46;100888.25;;;4.20;70.01
70833;BME280;58452;59.418;17.962;2023-04-30T07:42:11;100891.53;;;4.22;70.65
70833;BME280;58452;59.418;17.962;2023-04-30T07:44:37;100884.59;;;4.24;69.32
70833;BME280;58452;59.418;17.962;2023-04-30T07:47:03;100894.66;;;4.39;69.29
70833;BME280;58452;59.418;17.962;2023-04-30T07:49:29;100896.63;;;4.61;69.96
70833;BME280;58452;59.418;17.962;2023-04-30T07:51:55;100915.56;;;4.71;67.11
70833;BME280;58452;59.418;17.962;2023-04-30T07:54:21;100920.47;;;4.74;66.88
70833;BME280;58452;59.418;17.962;2023-04-30T07:56:46;100908.13;;;4.93;65.97
70833;BME280;58452;59.418;17.962;2023-04-30T07:59:13;100922.47;;;5.09;66.84
70833;BME280;58452;59.418;17.962;2023-04-30T08:01:38;100922.47;;;5.09;65.43
70833;BME280;58452;59.418;17.962;2023-04-30T08:04:04;100921.75;;;4.94;66.43
70833;BME280;58452;59.418;17.962;2023-04-30T08:06:29;100923.91;;;5.13;66.15
70833;BME280;58452;59.418;17.962;2023-04-30T08:08:55;100934.00;;;5.39;66.82
70833;BME280;58452;59.418;17.962;2023-04-30T08:11:21;100933.50;;;5.47;63.18
70833;BME280;58452;59.418;17.962;2023-04-30T08:13:46;100931.66;;;5.49;63.83
70833;BME280;58452;59.418;17.962;2023-04-30T08:16:12;100920.28;;;5.53;63.63
70833;BME280;58452;59.418;17.962;2023-04-30T08:18:37;100931.63;;;5.74;64.76
70833;BME280;58452;59.418;17.962;2023-04-30T08:21:03;100938.78;;;5.69;64.25
70833;BME280;58452;59.418;17.962;2023-04-30T08:23:29;100953.25;;;5.45;63.51
70833;BME280;58452;59.418;17.962;2023-04-30T08:25:55;100940.78;;;5.28;63.51
70833;BME280;58452;59.418;17.962;2023-04-30T08:28:20;100960.44;;;5.40;64.14
70833;BME280;58452;59.418;17.962;2023-04-30T08:30:46;100962.59;;;5.46;63.56
70833;BME280;58452;59.418;17.962;2023-04-30T08:33:11;100970.75;;;5.51;63.43
70833;BME280;58452;59.418;17.962;2023-04-30T08:35:36;100962.03;;;5.66;62.13
70833;BME280;58452;59.418;17.962;2023-04-30T08:38:02;100966.34;;;5.78;62.57
70833;BME280;58452;59.418;17.962;2023-04-30T08:40:27;100971.75;;;5.99;61.55
70833;BME280;58452;59.418;17.962;2023-04-30T08:43:13;100982.41;;;5.80;61.08
70833;BME280;58452;59.418;17.962;2023-04-30T08:45:39;100980.47;;;5.97;61.86
70833;BME280;58452;59.418;17.962;2023-04-30T08:48:09;100977.47;;;6.03;60.21
70833;BME280;58452;59.418;17.962;2023-04-30T08:50:36;100980.22;;;6.12;61.31
70833;BME280;58452;59.418;17.962;2023-04-30T08:53:02;100980.22;;;6.36;60.25
70833;BME280;58452;59.418;17.962;2023-04-30T08:55:27;100980.13;;;6.37;60.10
70833;BME280;58452;59.418;17.962;2023-04-30T08:57:53;100992.41;;;6.45;61.55
70833;BME280;58452;59.418;17.962;2023-04-30T09:00:19;100990.69;;;6.57;63.02
70833;BME280;58452;59.418;17.962;2023-04-30T09:02:45;101007.09;;;6.67;61.30
70833;BME280;58452;59.418;17.962;2023-04-30T09:05:14;101017.88;;;6.35;60.65
70833;BME280;58452;59.418;17.962;2023-04-30T09:07:41;101005.09;;;6.47;61.78
70833;BME280;58452;59.418;17.962;2023-04-30T09:10:20;101008.88;;;6.77;60.83
70833;BME280;58452;59.418;17.962;2023-04-30T09:13:00;101015.97;;;6.50;59.18
70833;BME280;58452;59.418;17.962;2023-04-30T09:15:27;101016.59;;;6.17;59.52
70833;BME280;58452;59.418;17.962;2023-04-30T09:18:15;101021.56;;;6.31;59.46
70833;BME280;58452;59.418;17.962;2023-04-30T09:21:02;101017.09;;;6.46;59.03
70833;BME280;58452;59.418;17.962;2023-04-30T09:23:28;101018.88;;;6.69;59.32
70833;BME280;58452;59.418;17.962;2023-04-30T09:25:54;101027.03;;;6.98;58.50
70833;BME280;58452;59.418;17.962;2023-04-30T09:28:20;101030.31;;;7.00;58.14
70833;BME280;58452;59.418;17.962;2023-04-30T09:30:50;101005.38;;;6.78;57.50
70833;BME280;58452;59.418;17.962;2023-04-30T09:33:15;101028.47;;;7.13;57.04
70833;BME280;58452;59.418;17.962;2023-04-30T09:35:41;101018.69;;;7.18;56.15
70833;BME280;58452;59.418;17.962;2023-04-30T09:38:06;101022.25;;;6.70;56.06
70833;BME280;58452;59.418;17.962;2023-04-30T09:40:37;101036.69;;;6.47;56.26
70833;BME280;58452;59.418;17.962;2023-04-30T09:43:03;101026.59;;;6.57;58.22
70833;BME280;58452;59.418;17.962;2023-04-30T09:45:39;101036.81;;;6.93;56.86
70833;BME280;58452;59.418;17.962;2023-04-30T09:48:08;101048.69;;;7.18;56.52
70833;BME280;58452;59.418;17.962;2023-04-30T09:50:38;101031.06;;;7.24;55.23
70833;BME280;58452;59.418;17.962;2023-04-30T09:53:08;101039.97;;;6.97;55.97
70833;BME280;58452;59.418;17.962;2023-04-30T09:55:35;101046.13;;;6.94;55.70
70833;BME280;58452;59.418;17.962;2023-04-30T09:58:09;101041.25;;;7.26;53.55
70833;BME280;58452;59.418;17.962;2023-04-30T10:00:35;101050.31;;;7.19;53.90
70833;BME280;58452;59.418;17.962;2023-04-30T10:03:08;101038.69;;;7.37;53.19
70833;BME280;58452;59.418;17.962;2023-04-30T10:05:40;101046.31;;;7.61;53.02
70833;BME280;58452;59.418;17.962;2023-04-30T10:08:12;101034.78;;;7.89;53.76
70833;BME280;58452;59.418;17.962;2023-04-30T10:10:39;101045.97;;;8.21;52.86
70833;BME280;58452;59.418;17.962;2023-04-30T10:13:10;101040.94;;;7.64;51.48
70833;BME280;58452;59.418;17.962;2023-04-30T10:15:40;101059.28;;;8.04;51.62
70833;BME280;58452;59.418;17.962;2023-04-30T10:18:16;101055.19;;;8.23;49.95
70833;BME280;58452;59.418;17.962;2023-04-30T10:20:45;101053.22;;;8.27;48.43
70833;BME280;58452;59.418;17.962;2023-04-30T10:23:12;101061.88;;;8.04;50.36
70833;BME280;58452;59.418;17.962;2023-04-30T10:25:38;101055.09;;;7.69;50.46
70833;BME280;58452;59.418;17.962;2023-04-30T10:28:07;101048.81;;;7.84;51.79
70833;BME280;58452;59.418;17.962;2023-04-30T10:30:34;101044.56;;;8.17;50.08
70833;BME280;58452;59.418;17.962;2023-04-30T10:33:15;101042.66;;;8.52;50.34
70833;BME280;58452;59.418;17.962;2023-04-30T10:35:48;101052.78;;;9.08;47.32
70833;BME280;58452;59.418;17.962;2023-04-30T10:38:23;101047.91;;;8.94;46.48
70833;BME280;58452;59.418;17.962;2023-04-30T10:40:50;101051.81;;;8.77;47.34
70833;BME280;58452;59.418;17.962;2023-04-30T10:43:19;101051.00;;;8.88;47.68
70833;BME280;58452;59.418;17.962;2023-04-30T10:45:46;101052.50;;;9.11;46.38
70833;BME280;58452;59.418;17.962;2023-04-30T10:48:14;101057.78;;;8.77;46.58
70833;BME280;58452;59.418;17.962;2023-04-30T10:50:41;101058.69;;;8.99;45.91
70833;BME280;58452;59.418;17.962;2023-04-30T10:53:06;101056.47;;;9.15;46.28
70833;BME280;58452;59.418;17.962;2023-04-30T10:55:32;101083.25;;;9.23;43.45
70833;BME280;58452;59.418;17.962;2023-04-30T10:57:58;101063.78;;;8.67;44.52
70833;BME280;58452;59.418;17.962;2023-04-30T11:00:25;101064.13;;;8.73;45.53
70833;BME280;58452;59.418;17.962;2023-04-30T11:02:56;101092.66;;;8.81;44.66
70833;BME280;58452;59.418;17.962;2023-04-30T11:05:34;101096.94;;;8.38;43.96
70833;BME280;58452;59.418;17.962;2023-04-30T11:08:00;101096.09;;;8.04;43.40
70833;BME280;58452;59.418;17.962;2023-04-30T11:10:29;101101.13;;;8.17;43.59
70833;BME280;58452;59.418;17.962;2023-04-30T11:12:56;101097.84;;;8.59;43.88
70833;BME280;58452;59.418;17.962;2023-04-30T11:15:26;101109.97;;;8.79;43.06
70833;BME280;58452;59.418;17.962;2023-04-30T11:17:56;101096.31;;;8.68;43.77
70833;BME280;58452;59.418;17.962;2023-04-30T11:20:31;101111.31;;;9.06;43.49
70833;BME280;58452;59.418;17.962;2023-04-30T11:23:12;101108.06;;;8.93;43.36
70833;BME280;58452;59.418;17.962;2023-04-30T11:25:46;101136.91;;;8.64;45.45
70833;BME280;58452;59.418;17.962;2023-04-30T11:28:24;101149.47;;;7.90;49.08
70833;BME280;58452;59.418;17.962;2023-04-30T11:30:54;101135.88;;;7.65;48.10
70833;BME280;58452;59.418;17.962;2023-04-30T11:33:21;101128.16;;;7.54;49.36
70833;BME280;58452;59.418;17.962;2023-04-30T11:35:48;101121.66;;;7.72;49.32
70833;BME280;58452;59.418;17.962;2023-04-30T11:40:52;101130.84;;;8.54;48.14
70833;BME280;58452;59.418;17.962;2023-04-30T11:43:25;101124.44;;;8.92;45.32
70833;BME280;58452;59.418;17.962;2023-04-30T11:46:10;101116.03;;;9.21;43.28
70833;BME280;58452;59.418;17.962;2023-04-30T11:48:40;101114.00;;;9.04;44.31
70833;BME280;58452;59.418;17.962;2023-04-30T11:51:20;101109.38;;;9.19;42.45
70833;BME280;58452;59.418;17.962;2023-04-30T11:53:50;101109.88;;;9.33;42.80
70833;BME280;58452;59.418;17.962;2023-04-30T11:56:20;101112.34;;;9.76;42.12
70833;BME280;58452;59.418;17.962;2023-04-30T11:58:46;101106.44;;;9.86;38.56
70833;BME280;58452;59.418;17.962;2023-04-30T12:01:12;101108.00;;;9.98;39.29
70833;BME280;58452;59.418;17.962;2023-04-30T12:03:46;101098.00;;;10.44;40.19
70833;BME280;58452;59.418;17.962;2023-04-30T12:06:20;101115.97;;;10.55;37.36
70833;BME280;58452;59.418;17.962;2023-04-30T12:08:46;101111.69;;;9.54;36.56
70833;BME280;58452;59.418;17.962;2023-04-30T12:11:19;101110.94;;;9.72;37.17
70833;BME280;58452;59.418;17.962;2023-04-30T12:14:10;101125.47;;;9.73;37.10
70833;BME280;58452;59.418;17.962;2023-04-30T12:16:40;101101.59;;;10.02;35.73
70833;BME280;58452;59.418;17.962;2023-04-30T12:19:06;101123.53;;;10.38;35.83
70833;BME280;58452;59.418;17.962;2023-04-30T12:21:32;101115.63;;;10.39;34.97
70833;BME280;58452;59.418;17.962;2023-04-30T12:23:58;101122.22;;;10.62;36.54
70833;BME280;58452;59.418;17.962;2023-04-30T12:26:24;101129.09;;;10.43;36.85
70833;BME280;58452;59.418;17.962;2023-04-30T12:28:58;101133.38;;;10.72;37.43
70833;BME280;58452;59.418;17.962;2023-04-30T12:31:23;101132.13;;;10.57;33.47
70833;BME280;58452;59.418;17.962;2023-04-30T12:33:55;101136.34;;;10.49;35.22
70833;BME280;58452;59.418;17.962;2023-04-30T12:36:21;101115.13;;;10.45;35.16
70833;BME280;58452;59.418;17.962;2023-04-30T12:38:46;101114.66;;;10.70;33.63
70833;BME280;58452;59.418;17.962;2023-04-30T12:41:12;101139.94;;;10.76;34.57
70833;BME280;58452;59.418;17.962;2023-04-30T12:43:39;101134.47;;;10.70;32.56
70833;BME280;58452;59.418;17.962;2023-04-30T12:46:05;101118.75;;;11.21;33.00
70833;BME280;58452;59.418;17.962;2023-04-30T12:48:42;101145.78;;;10.88;32.62
70833;BME280;58452;59.418;17.962;2023-04-30T12:51:09;101113.72;;;10.81;32.20
70833;BME280;58452;59.418;17.962;2023-04-30T12:53:44;101157.88;;;10.97;32.02
70833;BME280;58452;59.418;17.962;2023-04-30T12:56:14;101125.00;;;11.09;33.62
70833;BME280;58452;59.418;17.962;2023-04-30T12:58:45;101147.38;;;10.70;30.75
70833;BME280;58452;59.418;17.962;2023-04-30T13:01:16;101134.88;;;10.75;30.34
70833;BME280;58452;59.418;17.962;2023-04-30T13:03:42;101106.25;;;11.07;31.04
70833;BME280;58452;59.418;17.962;2023-04-30T13:06:07;101132.50;;;11.41;31.00